createdAt,value
2019-03-15T00:01:22.440Z,36.93
2019-03-15T00:03:54.517Z,30.50
2019-03-15T00:06:26.660Z,30.10
2019-03-15T00:08:58.647Z,36.25
2019-03-15T00:11:30.655Z,37.65
2019-03-15T00:14:02.635Z,38.28
2019-03-15T00:16:34.769Z,36.42
2019-03-15T00:19:06.876Z,36.10
2019-03-15T00:21:39.217Z,36.28
2019-03-15T00:24:11.194Z,42.45
2019-03-15T00:26:43.329Z,45.52
2019-03-15T00:29:15.308Z,47.85
2019-03-15T00:31:47.335Z,50.12
2019-03-15T00:34:19.311Z,49.77
2019-03-15T00:36:51.346Z,42.00
2019-03-15T00:39:23.326Z,40.90
2019-03-15T00:41:55.390Z,41.28
2019-03-15T00:44:27.403Z,42.43
2019-03-15T00:46:59.406Z,42.10
2019-03-15T00:49:31.426Z,40.10
2019-03-15T00:52:03.509Z,40.05
2019-03-15T00:54:35.555Z,40.78
2019-03-15T00:57:11.111Z,41.85
2019-03-15T00:59:43.151Z,43.92
2019-03-15T01:02:16.430Z,46.35
2019-03-15T01:04:48.600Z,48.00
2019-03-15T01:07:20.637Z,48.83
2019-03-15T01:09:52.671Z,47.27
2019-03-15T01:12:24.658Z,47.38
2019-03-15T01:14:56.695Z,45.20
2019-03-15T01:17:28.682Z,44.40
2019-03-15T01:20:01.178Z,42.80
2019-03-15T01:22:33.166Z,42.50
2019-03-15T01:25:05.355Z,44.05
2019-03-15T01:27:37.329Z,44.42
2019-03-15T01:30:09.747Z,42.85
2019-03-15T01:32:41.798Z,44.50
2019-03-15T01:35:13.821Z,40.70
2019-03-15T01:37:45.843Z,39.00
2019-03-15T01:40:17.869Z,41.70
2019-03-15T01:42:49.956Z,39.55
2019-03-15T01:45:22.400Z,43.40
2019-03-15T01:47:54.389Z,46.03
2019-03-15T01:50:26.520Z,48.05
2019-03-15T01:52:58.981Z,46.80
2019-03-15T01:55:31.198Z,49.00
2019-03-15T01:58:03.179Z,47.65
2019-03-15T02:00:35.423Z,48.33
2019-03-15T02:03:07.391Z,46.58
2019-03-15T02:05:40.427Z,49.38
2019-03-15T02:08:14.957Z,48.53
2019-03-15T02:10:55.747Z,47.37
2019-03-15T02:13:27.817Z,46.70
2019-03-15T02:16:00.832Z,48.10
2019-03-15T02:18:33.053Z,48.50
2019-03-15T02:21:05.171Z,50.20
2019-03-15T02:23:37.150Z,53.48
2019-03-15T02:26:09.232Z,53.45
2019-03-15T02:28:41.354Z,50.33
2019-03-15T02:31:14.467Z,47.65
2019-03-15T02:33:46.589Z,45.12
2019-03-15T02:36:18.644Z,43.50
2019-03-15T02:38:50.688Z,43.13
2019-03-15T02:41:22.665Z,38.40
2019-03-15T02:43:54.670Z,37.63
2019-03-15T02:46:26.659Z,42.83
2019-03-15T02:48:59.027Z,43.40
2019-03-15T02:52:13.190Z,43.52
2019-03-15T02:54:45.473Z,39.03
2019-03-15T02:57:17.554Z,36.90
2019-03-15T02:59:49.532Z,36.60
2019-03-15T03:02:22.591Z,36.47
2019-03-15T03:04:54.679Z,36.03
2019-03-15T03:07:48.313Z,38.33
2019-03-15T03:10:36.590Z,37.03
2019-03-15T03:13:32.900Z,37.30
2019-03-15T03:16:50.492Z,35.33
2019-03-15T03:19:32.706Z,34.15
2019-03-15T03:22:05.196Z,34.63
2019-03-15T03:24:37.186Z,34.67
2019-03-15T03:27:09.207Z,36.10
2019-03-15T03:29:41.193Z,35.43
2019-03-15T03:33:00.174Z,37.30
2019-03-15T03:35:32.197Z,37.03
2019-03-15T03:38:46.812Z,35.10
2019-03-15T03:41:19.154Z,33.92
2019-03-15T03:43:59.259Z,35.65
2019-03-15T03:47:03.872Z,32.80
2019-03-15T03:49:37.112Z,34.50
2019-03-15T03:52:14.589Z,36.10
2019-03-15T03:54:50.852Z,34.83
2019-03-15T03:57:44.410Z,35.87
2019-03-15T04:00:16.730Z,34.60
2019-03-15T04:02:48.762Z,34.30
2019-03-15T04:05:49.406Z,36.53
2019-03-15T04:08:58.666Z,35.67
2019-03-15T04:12:09.044Z,35.17
2019-03-15T04:14:44.947Z,33.93
2019-03-15T04:17:16.982Z,34.80
2019-03-15T04:21:30.956Z,35.20
2019-03-15T04:24:12.928Z,33.37
2019-03-15T04:34:10.143Z,34.23
2019-03-15T04:37:22.746Z,33.07
2019-03-15T04:39:54.626Z,33.23
2019-03-15T04:42:30.226Z,36.03
2019-03-15T04:45:30.163Z,35.15
2019-03-15T04:48:29.181Z,32.93
2019-03-15T04:51:07.059Z,33.73
2019-03-15T04:53:44.763Z,32.33
2019-03-15T04:56:19.127Z,33.83
2019-03-15T04:58:57.742Z,33.13
2019-03-15T05:01:33.414Z,31.67
2019-03-15T05:04:08.773Z,31.80
2019-03-15T05:06:46.285Z,31.23
2019-03-15T05:09:28.999Z,31.03
2019-03-15T05:12:25.964Z,29.53
2019-03-15T05:14:58.369Z,31.77
2019-03-15T05:17:31.116Z,31.50
2019-03-15T05:20:11.582Z,30.47
2019-03-15T05:22:51.913Z,32.13
2019-03-15T05:25:29.682Z,32.13
2019-03-15T05:28:06.084Z,29.07
2019-03-15T05:30:53.276Z,30.30
2019-03-15T05:33:26.006Z,28.17
2019-03-15T05:36:07.787Z,29.57
2019-03-15T05:38:39.815Z,28.17
2019-03-15T05:41:12.083Z,26.67
2019-03-15T05:43:44.121Z,26.63
2019-03-15T05:46:52.011Z,26.40
2019-03-15T05:49:13.302Z,27.20
2019-03-15T05:51:49.411Z,27.63
2019-03-15T05:54:44.404Z,29.90
2019-03-15T05:57:52.949Z,28.23
2019-03-15T06:00:33.661Z,29.47
2019-03-15T06:03:07.306Z,28.73
2019-03-15T06:05:39.344Z,26.23
2019-03-15T06:08:40.063Z,27.77
2019-03-15T06:11:12.127Z,28.33
2019-03-15T06:13:46.867Z,26.80
2019-03-15T06:16:26.607Z,26.43
2019-03-15T06:19:06.183Z,24.47
2019-03-15T06:21:39.712Z,24.90
2019-03-15T06:24:25.944Z,25.47
2019-03-15T06:27:09.265Z,23.47
2019-03-15T06:29:45.877Z,24.70
2019-03-15T06:32:22.832Z,26.73
2019-03-15T06:35:29.686Z,26.13
2019-03-15T06:38:10.947Z,27.03
2019-03-15T06:40:52.725Z,25.50
2019-03-15T06:43:29.780Z,25.93
2019-03-15T06:46:05.823Z,26.07
2019-03-15T06:48:37.795Z,24.77
2019-03-15T06:51:09.811Z,25.70
2019-03-15T06:53:41.817Z,25.97
2019-03-15T06:56:13.805Z,23.93
2019-03-15T06:58:45.815Z,23.77
2019-03-15T07:01:18.786Z,22.50
2019-03-15T07:03:50.911Z,23.03
2019-03-15T07:06:23.159Z,20.97
2019-03-15T07:08:55.534Z,22.93
2019-03-15T07:11:27.551Z,23.03
2019-03-15T07:13:59.543Z,21.67
2019-03-15T07:16:31.573Z,23.77
2019-03-15T07:19:03.535Z,22.07
2019-03-15T07:21:36.840Z,21.80
2019-03-15T07:24:09.244Z,21.73
2019-03-15T07:26:43.753Z,21.27
2019-03-15T07:29:14.972Z,21.00
2019-03-15T07:31:47.014Z,22.07
2019-03-15T07:34:19.014Z,21.93
2019-03-15T07:37:30.875Z,22.50
2019-03-15T07:40:02.866Z,21.40
2019-03-15T07:42:34.890Z,23.43
2019-03-15T07:45:14.673Z,23.25
2019-03-15T07:47:46.710Z,21.50
2019-03-15T07:50:20.013Z,21.23
2019-03-15T07:52:52.122Z,21.80
2019-03-15T07:55:24.094Z,20.02
2019-03-15T07:57:56.210Z,21.12
2019-03-15T08:00:28.223Z,20.02
2019-03-15T08:03:18.973Z,19.85
2019-03-15T08:05:51.067Z,18.37
2019-03-15T08:08:23.193Z,15.95
2019-03-15T08:10:55.277Z,15.40
2019-03-15T08:13:27.323Z,13.90
2019-03-15T08:15:59.319Z,16.60
2019-03-15T08:18:31.349Z,15.28
2019-03-15T08:21:03.383Z,12.07
2019-03-15T08:23:36.528Z,11.00
2019-03-15T08:26:08.497Z,11.20
2019-03-15T08:28:40.538Z,10.80
2019-03-15T08:31:12.573Z,10.75
2019-03-15T08:33:44.689Z,11.20
2019-03-15T08:36:20.040Z,11.38
2019-03-15T08:38:50.905Z,10.70
2019-03-15T08:41:22.903Z,11.40
2019-03-15T08:43:54.928Z,11.05
2019-03-15T08:46:26.942Z,11.38
2019-03-15T08:48:59.006Z,11.60
2019-03-15T08:51:31.055Z,10.78
2019-03-15T08:54:03.469Z,11.25
2019-03-15T08:56:35.498Z,10.88
2019-03-15T08:59:07.481Z,10.35
2019-03-15T09:01:39.508Z,10.10
2019-03-15T09:04:11.562Z,11.75
2019-03-15T09:06:43.592Z,10.43
2019-03-15T09:09:15.639Z,10.90
2019-03-15T09:11:47.998Z,11.15
2019-03-15T09:14:20.365Z,9.73
2019-03-15T09:16:52.403Z,10.93
2019-03-15T09:19:24.393Z,9.13
2019-03-15T09:21:56.418Z,10.40
2019-03-15T09:24:28.419Z,10.43
2019-03-15T09:27:00.444Z,10.28
2019-03-15T09:29:32.485Z,10.82
2019-03-15T09:32:09.248Z,10.20
2019-03-15T09:34:40.706Z,10.08
2019-03-15T09:37:12.672Z,10.05
2019-03-15T09:39:44.702Z,10.03
2019-03-15T09:42:16.702Z,10.23
2019-03-15T09:44:48.724Z,8.88
2019-03-15T09:47:21.764Z,8.35
2019-03-15T09:49:53.818Z,9.20
2019-03-15T09:52:25.855Z,9.45
2019-03-15T09:54:57.891Z,8.68
2019-03-15T09:57:29.923Z,9.08
2019-03-15T10:00:01.947Z,8.60
2019-03-15T10:02:33.982Z,8.28
2019-03-15T10:05:11.359Z,8.23
2019-03-15T10:07:43.395Z,8.45
2019-03-15T10:10:18.368Z,8.60
2019-03-15T10:12:50.384Z,8.63
2019-03-15T10:15:26.215Z,8.90
2019-03-15T10:17:57.398Z,9.13
2019-03-15T10:20:29.429Z,9.80
2019-03-15T10:23:05.873Z,9.48
2019-03-15T10:25:46.034Z,8.78
2019-03-15T10:28:08.875Z,9.30
2019-03-15T10:30:40.931Z,9.05
2019-03-15T10:33:13.000Z,8.35
2019-03-15T10:35:45.095Z,10.30
2019-03-15T10:38:17.128Z,9.53
2019-03-15T10:40:49.233Z,9.63
2019-03-15T10:43:21.358Z,9.35
2019-03-15T10:45:53.723Z,10.70
2019-03-15T10:48:25.891Z,10.88
2019-03-15T10:50:57.964Z,10.53
2019-03-15T10:53:29.990Z,10.53
2019-03-15T10:56:02.485Z,10.10
2019-03-15T10:58:37.021Z,9.70
2019-03-15T11:01:09.105Z,9.70
2019-03-15T11:03:41.260Z,9.90
2019-03-15T11:06:13.235Z,9.15
2019-03-15T11:08:46.884Z,8.43
2019-03-15T11:11:19.212Z,8.93
2019-03-15T11:13:51.666Z,8.50
2019-03-15T11:16:24.086Z,8.23
2019-03-15T11:18:56.061Z,12.37
2019-03-15T11:21:28.104Z,9.70
2019-03-15T11:24:00.148Z,8.50
2019-03-15T11:26:32.159Z,9.00
2019-03-15T11:29:06.454Z,8.10
2019-03-15T11:31:38.442Z,8.75
2019-03-15T11:34:10.478Z,8.48
2019-03-15T11:36:42.449Z,8.78
2019-03-15T11:39:14.581Z,8.45
2019-03-15T11:41:46.743Z,8.18
2019-03-15T11:44:18.759Z,9.38
2019-03-15T11:46:50.955Z,8.45
2019-03-15T11:49:23.453Z,8.38
2019-03-15T11:51:55.616Z,7.70
2019-03-15T11:54:27.640Z,6.95
2019-03-15T11:56:59.665Z,7.50
2019-03-15T11:59:31.682Z,8.60
2019-03-15T12:02:04.635Z,7.37
2019-03-15T12:04:36.618Z,7.53
2019-03-15T12:07:10.517Z,7.55
2019-03-15T12:09:42.888Z,7.47
2019-03-15T12:12:14.905Z,7.03
2019-03-15T12:14:46.883Z,6.70
2019-03-15T12:17:18.905Z,8.25
2019-03-15T12:19:51.000Z,7.53
2019-03-15T12:22:23.365Z,7.53
2019-03-15T12:24:55.410Z,7.95
2019-03-15T12:27:27.433Z,7.83
2019-03-15T12:29:59.505Z,7.62
2019-03-15T12:32:31.489Z,9.65
2019-03-15T12:35:03.607Z,9.05
2019-03-15T12:37:35.566Z,9.03
2019-03-15T12:40:08.711Z,8.20
2019-03-15T12:42:41.145Z,7.80
2019-03-15T12:45:13.447Z,7.40
2019-03-15T12:47:45.422Z,8.13
2019-03-15T12:50:17.420Z,7.62
2019-03-15T12:52:49.934Z,7.50
2019-03-15T12:55:21.960Z,7.83
2019-03-15T12:57:54.011Z,6.90
2019-03-15T13:00:26.052Z,6.42
2019-03-15T13:02:58.103Z,5.95
2019-03-15T13:05:30.106Z,5.15
2019-03-15T13:08:02.118Z,5.60
2019-03-15T13:10:34.196Z,5.90
2019-03-15T13:13:06.174Z,5.78
2019-03-15T13:15:38.161Z,5.80
2019-03-15T13:18:10.197Z,6.30
2019-03-15T13:20:42.247Z,6.33
2019-03-15T13:23:14.279Z,6.15
2019-03-15T13:25:46.412Z,5.85
2019-03-15T13:28:18.428Z,7.15
2019-03-15T13:30:50.470Z,6.28
2019-03-15T13:33:22.535Z,6.95
2019-03-15T13:35:54.575Z,6.35
2019-03-15T13:38:26.560Z,5.22
2019-03-15T13:40:58.568Z,5.20
2019-03-15T13:43:30.554Z,5.42
2019-03-15T13:46:02.578Z,5.10
2019-03-15T13:48:34.605Z,5.08
2019-03-15T13:51:07.751Z,4.80
2019-03-15T13:53:39.717Z,5.28
2019-03-15T13:56:11.801Z,5.22
2019-03-15T13:58:52.576Z,5.42
2019-03-15T14:01:17.602Z,5.20
2019-03-15T14:03:50.688Z,6.08
2019-03-15T14:06:22.697Z,4.87
2019-03-15T14:08:54.706Z,6.67
2019-03-15T14:11:26.924Z,7.35
2019-03-15T14:13:58.946Z,7.60
2019-03-15T14:16:30.919Z,7.60
2019-03-15T14:19:02.945Z,7.60
2019-03-15T14:21:35.118Z,7.20
2019-03-15T14:24:07.426Z,6.85
2019-03-15T14:26:39.554Z,5.95
2019-03-15T14:29:11.928Z,6.40
2019-03-15T14:31:43.905Z,5.83
2019-03-15T14:34:15.937Z,6.55
2019-03-15T14:36:48.134Z,5.70
2019-03-15T14:39:20.368Z,5.15
2019-03-15T14:41:52.669Z,5.75
2019-03-15T14:44:24.947Z,6.30
2019-03-15T14:46:57.531Z,5.08
2019-03-15T14:49:29.598Z,6.28
2019-03-15T14:52:01.750Z,6.05
2019-03-15T14:54:33.722Z,6.12
2019-03-15T14:57:08.759Z,7.47
2019-03-15T14:59:40.778Z,7.50
2019-03-15T15:02:12.851Z,6.00
2019-03-15T15:04:45.244Z,6.90
2019-03-15T15:07:17.255Z,6.30
2019-03-15T15:09:49.228Z,5.65
2019-03-15T15:12:21.253Z,5.47
2019-03-15T15:14:53.253Z,6.17
2019-03-15T15:17:25.267Z,6.83
2019-03-15T15:19:57.376Z,6.83
2019-03-15T15:22:29.375Z,6.67
2019-03-15T15:25:01.399Z,5.90
2019-03-15T15:27:33.399Z,5.90
2019-03-15T15:30:06.913Z,6.00
2019-03-15T15:32:40.004Z,5.35
2019-03-15T15:35:12.138Z,6.62
2019-03-15T15:37:44.268Z,7.05
2019-03-15T15:40:16.394Z,6.47
2019-03-15T15:42:48.976Z,8.53
2019-03-15T15:45:21.638Z,22.22
2019-03-15T15:47:53.674Z,11.18
2019-03-15T15:50:25.667Z,8.13
2019-03-15T15:52:57.735Z,8.38
2019-03-15T15:55:29.750Z,8.95
2019-03-15T15:58:01.763Z,8.20
2019-03-15T16:00:33.749Z,7.72
2019-03-15T16:03:07.021Z,9.70
2019-03-15T16:05:39.052Z,10.38
2019-03-15T16:08:11.118Z,10.10
2019-03-15T16:10:43.169Z,11.70
2019-03-15T16:13:18.273Z,13.72
2019-03-15T16:15:48.976Z,14.35
2019-03-15T16:18:21.004Z,21.42
2019-03-15T16:20:52.988Z,16.37
2019-03-15T16:23:25.009Z,16.50
2019-03-15T16:25:57.157Z,16.05
2019-03-15T16:28:32.306Z,15.80
2019-03-15T16:31:02.995Z,15.55
2019-03-15T16:33:35.478Z,13.90
2019-03-15T16:36:08.039Z,15.35
2019-03-15T16:38:40.191Z,14.43
2019-03-15T16:41:12.252Z,14.47
2019-03-15T16:43:44.345Z,15.10
2019-03-15T16:46:16.328Z,26.73
2019-03-15T16:48:48.377Z,26.33
2019-03-15T16:51:20.452Z,20.00
2019-03-15T16:53:52.421Z,17.40
2019-03-15T16:56:24.460Z,17.20
2019-03-15T16:58:56.489Z,15.78
2019-03-15T17:01:28.479Z,38.28
2019-03-15T17:04:00.562Z,18.35
2019-03-15T17:06:32.574Z,17.00
2019-03-15T17:09:07.471Z,17.40
2019-03-15T17:11:39.491Z,16.80
2019-03-15T17:14:24.883Z,18.23
2019-03-15T17:16:45.814Z,17.23
2019-03-15T17:19:17.789Z,15.83
2019-03-15T17:21:50.161Z,15.08
2019-03-15T17:24:22.282Z,14.45
2019-03-15T17:26:54.295Z,14.05
2019-03-15T17:29:26.334Z,14.15
2019-03-15T17:31:58.535Z,13.00
2019-03-15T17:34:30.558Z,13.93
2019-03-15T17:37:06.865Z,13.48
2019-03-15T17:39:36.860Z,13.65
2019-03-15T17:42:09.214Z,13.50
2019-03-15T17:44:41.300Z,12.53
2019-03-15T17:47:13.283Z,13.28
2019-03-15T17:49:45.358Z,12.78
2019-03-15T17:52:17.456Z,13.03
2019-03-15T17:54:50.024Z,13.62
2019-03-15T17:57:22.051Z,12.75
2019-03-15T18:00:28.430Z,14.20
2019-03-15T18:03:00.583Z,24.63
2019-03-15T18:05:32.604Z,25.60
2019-03-15T18:08:04.698Z,22.58
2019-03-15T18:10:38.582Z,15.18
2019-03-15T18:13:11.216Z,14.98
2019-03-15T18:15:50.897Z,14.68
2019-03-15T18:18:30.309Z,15.90
2019-03-15T18:21:04.170Z,17.17
2019-03-15T18:23:42.808Z,15.68
2019-03-15T18:26:18.925Z,15.30
2019-03-15T18:28:51.177Z,14.30
2019-03-15T18:31:23.390Z,13.43
2019-03-15T18:33:57.226Z,14.43
2019-03-15T18:36:29.342Z,15.40
2019-03-15T18:39:02.614Z,14.25
2019-03-15T18:41:35.060Z,14.87
2019-03-15T18:44:20.448Z,14.05
2019-03-15T18:46:52.631Z,14.83
2019-03-15T18:49:36.846Z,15.83
2019-03-15T18:52:11.856Z,16.30
2019-03-15T18:54:56.760Z,16.73
2019-03-15T18:57:28.881Z,20.02
2019-03-15T19:00:01.109Z,18.62
2019-03-15T19:02:33.252Z,20.30
2019-03-15T19:05:08.114Z,19.65
2019-03-15T19:07:40.269Z,22.35
2019-03-15T19:10:12.591Z,26.17
2019-03-15T19:12:44.742Z,28.10
2019-03-15T19:15:17.107Z,29.18
2019-03-15T19:17:49.431Z,29.55
2019-03-15T19:20:21.689Z,29.30
2019-03-15T19:22:53.852Z,28.55
2019-03-15T19:25:25.948Z,41.92
2019-03-15T19:27:58.510Z,74.90
2019-03-15T19:30:32.363Z,41.63
2019-03-15T19:33:04.685Z,25.62
2019-03-15T19:35:40.042Z,23.83
2019-03-15T19:38:14.766Z,24.63
2019-03-15T19:40:46.025Z,25.25
2019-03-15T19:43:18.402Z,32.20
2019-03-15T19:45:50.871Z,32.25
2019-03-15T19:48:23.116Z,28.02
2019-03-15T19:50:55.198Z,24.82
2019-03-15T19:53:27.335Z,26.35
2019-03-15T19:55:59.427Z,25.95
2019-03-15T19:58:31.588Z,24.43
2019-03-15T20:01:03.898Z,24.10
2019-03-15T20:03:44.390Z,26.12
2019-03-15T20:06:15.005Z,24.63
2019-03-15T20:08:47.212Z,75.28
2019-03-15T20:11:19.384Z,33.85
2019-03-15T20:13:51.490Z,24.05
2019-03-15T20:16:23.964Z,29.20
2019-03-15T20:18:56.193Z,50.40
2019-03-15T20:21:28.463Z,25.77
2019-03-15T20:24:00.595Z,24.75
2019-03-15T20:26:33.178Z,23.62
2019-03-15T20:29:05.354Z,27.20
2019-03-15T20:31:39.893Z,60.58
2019-03-15T20:34:12.020Z,37.50
2019-03-15T20:36:44.566Z,23.45
2019-03-15T20:39:16.708Z,24.85
2019-03-15T20:41:48.856Z,25.52
2019-03-15T20:44:28.476Z,30.12
2019-03-15T20:46:55.967Z,37.03
2019-03-15T20:49:29.375Z,32.65
2019-03-15T20:52:01.650Z,34.92
2019-03-15T20:54:35.078Z,34.50
2019-03-15T20:57:08.474Z,35.33
2019-03-15T20:59:40.612Z,35.52
2019-03-15T21:02:12.807Z,33.50
2019-03-15T21:04:46.043Z,30.75
2019-03-15T21:07:18.220Z,30.97
2019-03-15T21:09:51.299Z,28.23
2019-03-15T21:12:23.527Z,26.40
2019-03-15T21:14:55.713Z,24.75
2019-03-15T21:17:29.467Z,26.70
2019-03-15T21:20:01.837Z,28.50
2019-03-15T21:22:34.014Z,30.52
2019-03-15T21:25:07.074Z,34.95
2019-03-15T21:27:52.476Z,34.27
2019-03-15T21:30:15.182Z,39.15
2019-03-15T21:32:47.605Z,39.45
2019-03-15T21:35:20.458Z,41.50
2019-03-15T21:37:52.751Z,41.55
2019-03-15T21:40:25.113Z,41.75
2019-03-15T21:42:57.296Z,45.20
2019-03-15T21:45:29.658Z,47.60
2019-03-15T21:48:01.885Z,45.52
2019-03-15T21:50:34.607Z,49.38
2019-03-15T21:53:07.324Z,49.33
2019-03-15T21:55:39.609Z,49.85
2019-03-15T21:58:13.287Z,44.00
2019-03-15T22:00:45.628Z,47.93
2019-03-15T22:03:17.971Z,46.42
2019-03-15T22:05:50.290Z,52.75
2019-03-15T22:08:22.455Z,51.35
2019-03-15T22:10:54.717Z,53.40
2019-03-15T22:13:26.955Z,52.62
2019-03-15T22:15:59.104Z,54.33
2019-03-15T22:18:31.261Z,71.50
2019-03-15T22:21:03.498Z,60.58
2019-03-15T22:23:35.703Z,60.98
2019-03-15T22:26:10.582Z,50.28
2019-03-15T22:28:42.800Z,45.98
2019-03-15T22:31:17.181Z,47.62
2019-03-15T22:33:51.978Z,49.25
2019-03-15T22:36:24.138Z,48.98
2019-03-15T22:38:56.347Z,50.48
2019-03-15T22:41:28.436Z,47.03
2019-03-15T22:44:01.007Z,45.83
2019-03-15T22:46:33.771Z,46.10
2019-03-15T22:49:06.125Z,44.13
2019-03-15T22:51:40.684Z,44.50
2019-03-15T22:54:13.450Z,45.12
2019-03-15T22:56:45.595Z,47.03
2019-03-15T22:59:17.787Z,53.75
2019-03-15T23:02:03.321Z,54.08
2019-03-15T23:04:40.851Z,50.90
2019-03-15T23:07:14.493Z,49.42
2019-03-15T23:09:47.746Z,51.10
2019-03-15T23:12:20.092Z,49.10
2019-03-15T23:14:52.273Z,49.42
2019-03-15T23:17:25.465Z,52.25
2019-03-15T23:19:57.657Z,58.90
2019-03-15T23:22:30.223Z,58.02
2019-03-15T23:25:02.397Z,55.63
2019-03-15T23:27:34.713Z,57.83
2019-03-15T23:30:10.454Z,57.58
2019-03-15T23:32:42.896Z,54.13
2019-03-15T23:35:15.158Z,55.80
2019-03-15T23:37:47.368Z,48.80
2019-03-15T23:40:19.532Z,49.20
2019-03-15T23:42:51.778Z,48.13
2019-03-15T23:45:24.001Z,49.77
2019-03-15T23:47:56.271Z,50.83
2019-03-15T23:50:28.391Z,54.60
2019-03-15T23:53:00.563Z,50.00
2019-03-15T23:55:32.692Z,50.38
2019-03-15T23:58:04.922Z,50.05
